• Join FlightAware (Why Join?)
  • Login
  • US Flag 
06:23AM EDT


 

Airport Tracker/Info


-or-


 

Live Flight TrackerFlight Track Log ✈ SWA158 ✈ 22-Apr-2013 ✈ KMDW - KMHT

Flight Track Log - Related Links

Times and Time Zones

All times are in EDT time to prevent confusion due to time zone crossing. See the SWA158 flight status page for this flight to view local times or setup timezone preferences in your user account.

Time Position Orientation Groundspeed Altitude Reporting Facility
EDT Latitude Longitude Course Direction KTS MPH feet Rate Location/Type
02:30PM 41.7667 -87.7833 14° North 166 191 2,000  Level Chicago TRACON
02:31PM 41.8167 -87.7667 14° North 268 308 4,800 2,040 Climbing Chicago TRACON
02:33PM 41.8347 -87.5950 82° East 269 310 7,900 2,220 Climbing Chicago Center
02:34PM 41.8433 -87.4894 84° East 283 326 11,300 3,120 Climbing Chicago Center
02:35PM 41.8261 -87.3772 102° East 307 353 14,400 2,760 Climbing Chicago Center
02:36PM 41.8011 -87.2511 105° East 335 386 17,100 2,520 Climbing Chicago Center
02:37PM 41.7739 -87.1164 105° East 363 418 19,700 2,820 Climbing Chicago Center
02:38PM 41.7636 -86.9428 94° East 394 453 23,000 2,580 Climbing Chicago Center
02:39PM 41.7656 -86.7906 89° East 405 466 25,100 1,920 Climbing Chicago Center
02:40PM 41.7650 -86.6278 90° East 429 494 27,000 1,740 Climbing Chicago Center
02:41PM 41.7675 -86.4619 89° East 444 511 28,800 1,620 Climbing Chicago Center
02:42PM 41.7825 -86.2942 83° East 460 529 30,400 1,500 Climbing Chicago Center
02:43PM 41.8714 -86.1772 44° Northeast 446 513 32,000 1,560 Climbing Chicago Center
02:44PM 41.9503 -86.0500 50° Northeast 456 525 33,700 1,440 Climbing Chicago Center
02:45PM 41.9553 -85.8422 88° East 466 536 35,000 1,260 Climbing Chicago Center
02:46PM 41.9544 -85.6614 90° East 478 550 36,400 1,440 Climbing Chicago Center
02:47PM 41.9539 -85.4853 90° East 470 541 38,000 1,020 Climbing Chicago Center
02:48PM 41.9519 -85.3089 91° East 468 539 38,600 420 Climbing Chicago Center
02:49PM 41.9531 -85.2383 89° East 468 539 38,700 240 Climbing Cleveland Center
02:50PM 41.9519 -85.0539 90° East 474 545 39,000 120 Climbing Cleveland Center
02:51PM 41.9528 -84.8722 90° East 481 554 39,000  Level Cleveland Center
02:52PM 41.9517 -84.6739 90° East 481 554 39,000  Level Cleveland Center
02:53PM 41.9494 -84.4950 91° East 481 554 39,000  Level Cleveland Center
02:54PM 41.9453 -84.3131 92° East 481 554 39,000  Level Cleveland Center
02:55PM 41.9522 -84.1544 87° East 475 547 39,000  Level Cleveland Center
02:56PM 41.9667 -83.9569 84° East 481 554 39,000  Level Cleveland Center
02:57PM 41.9781 -83.7786 85° East 476 548 39,000  Level Cleveland Center
02:58PM 41.9911 -83.6033 84° East 476 548 39,000  Level Cleveland Center
02:59PM 42.0017 -83.4278 85° East 476 548 39,000  Level Cleveland Center
03:00PM 42.0122 -83.2492 85° East 481 554 39,000  Level Cleveland Center
03:01PM 42.0225 -83.0708 86° East 481 554 39,000  Level Cleveland Center
03:02PM 42.0325 -82.8950 86° East 481 554 39,000  Level Cleveland Center
03:03PM 42.0444 -82.7108 85° East 481 554 39,000  Level Cleveland Center
03:04PM 42.0581 -82.5325 84° East 481 554 39,000  Level Cleveland Center
03:05PM 42.0631 -82.3564 88° East 476 548 39,000  Level Cleveland Center
03:06PM 42.0678 -82.1775 88° East 476 548 39,000  Level Cleveland Center
03:07PM 42.0803 -82.0128 84° East 476 548 39,000  Level Cleveland Center
03:08PM 42.0886 -81.8367 86° East 476 548 39,000  Level Cleveland Center
03:09PM 42.0986 -81.6606 86° East 475 547 39,000  Level Cleveland Center
03:10PM 42.1067 -81.4758 87° East 475 547 39,000  Level Cleveland Center
03:11PM 42.1142 -81.2800 87° East 480 552 39,000  Level Cleveland Center
03:12PM 42.1236 -81.0983 86° East 480 552 39,000  Level Cleveland Center
03:13PM 42.1303 -80.9164 87° East 485 558 39,000  Level Cleveland Center
03:14PM 42.1369 -80.7344 87° East 480 552 39,000  Level Cleveland Center
03:15PM 42.1433 -80.5522 87° East 480 552 39,000  Level Cleveland Center
03:16PM 42.1494 -80.3731 87° East 480 552 39,000  Level Cleveland Center
03:17PM 42.1572 -80.1939 87° East 480 552 39,000  Level Cleveland Center
03:18PM 42.1608 -80.0342 88° East 480 552 39,000  Level Cleveland Center
03:19PM 42.1683 -79.8547 87° East 480 552 39,000  Level Cleveland Center
03:20PM 42.1731 -79.6531 88° East 480 552 39,000  Level Cleveland Center
03:21PM 42.1797 -79.4736 87° East 485 558 39,000  Level Cleveland Center
03:22PM 42.1842 -79.2942 88° East 480 552 39,000  Level Cleveland Center
03:23PM 42.1886 -79.1456 88° East 480 552 39,000  Level Cleveland Center
03:24PM 42.2128 -78.9319 81° East 480 552 39,000  Level Cleveland Center
03:25PM 42.2333 -78.7717 80° East 480 552 39,000  Level Cleveland Center
03:26PM 42.2575 -78.5914 80° East 487 560 39,000  Level Cleveland Center
03:27PM 42.2794 -78.4167 80° East 487 560 39,000  Level Cleveland Center
03:28PM 42.3025 -78.2164 81° East 487 560 39,000  Level Cleveland Center
03:29PM 42.3239 -78.0386 81° East 487 560 39,000  Level Cleveland Center
03:30PM 42.3447 -77.8608 81° East 487 560 39,000  Level Cleveland Center
03:31PM 42.3675 -77.6828 80° East 487 560 39,000  Level Cleveland Center
03:33PM 42.4089 -77.2972 82° East 492 566 39,000 -60 Level Boston Center
03:34PM 42.4311 -77.1189 80° East 487 560 38,900  Descending Boston Center
03:35PM 42.4489 -76.9400 82° East 482 555 39,000  Climbing Boston Center
03:36PM 42.4686 -76.7528 82° East 482 555 39,000  Level Boston Center
03:37PM 42.4906 -76.5542 81° East 482 555 39,000  Level Boston Center
03:38PM 42.5089 -76.3864 82° East 482 555 39,000  Level Boston Center
03:39PM 42.5275 -76.2072 82° East 482 555 39,000  Level Boston Center
03:40PM 42.5461 -76.0222 82° East 487 560 39,000  Level Boston Center
03:41PM 42.5664 -75.8372 81° East 487 560 39,000  Level Boston Center
03:42PM 42.5822 -75.6519 83° East 487 560 39,000  Level Boston Center
03:43PM 42.6019 -75.4642 82° East 493 567 39,000 -900 Level Boston Center
03:44PM 42.6169 -75.2842 83° East 498 573 37,200 -2,220 Descending Boston Center
03:45PM 42.6339 -75.0986 83° East 498 573 34,600 -2,760 Descending Boston Center
03:46PM 42.6508 -74.9131 83° East 498 573 31,700 -2,700 Descending Boston Center
03:47PM 42.6692 -74.7303 82° East 498 573 29,300 -1,380 Descending Boston Center
03:48PM 42.6828 -74.5642 84° East 478 550 29,000 -180 Descending Boston Center
03:49PM 42.6964 -74.3922 84° East 464 534 29,000 -480 Level Boston Center
03:50PM 42.7114 -74.2286 83° East 446 513 28,100 -960 Descending Boston Center
03:51PM 42.7264 -74.0625 83° East 441 507 27,100 -1,200 Descending Boston Center
03:52PM 42.7392 -73.8958 84° East 441 507 25,800 -1,560 Descending Boston Center
03:53PM 42.7517 -73.7125 85° East 441 507 24,000 -1,080 Descending Boston Center
03:54PM 42.7572 -73.5769 87° East 441 507 23,700 -720 Descending Boston Center
03:55PM 42.7631 -73.4186 87° East 436 502 22,600 -1,140 Descending Boston Center
03:56PM 42.7686 -73.2517 87° East 419 482 21,500 -1,080 Descending Boston Center
03:57PM 42.7736 -73.0964 87° East 406 467 20,500 -1,080 Descending Boston Center
03:58PM 42.7764 -72.9408 89° East 404 465 19,400 -900 Descending Boston Center
03:59PM 42.7811 -72.8022 87° East 393 452 18,700 -600 Descending Boston Center
04:00PM 42.7858 -72.6578 87° East 380 437 18,300 -1,020 Descending Boston Center
04:01PM 42.7900 -72.5164 88° East 380 437 16,700 -1,980 Descending Boston Center
04:02PM 42.7942 -72.3778 88° East 366 421 14,400 -2,340 Descending Boston Center
04:03PM 42.7983 -72.2308 88° East 366 421 12,100 -2,040 Descending Boston Center
04:04PM 42.8083 -72.1147 83° East 351 404 10,400 -1,200 Descending Boston Center
04:05PM 42.8308 -71.9983 75° East 309 356 9,800 -960 Descending Boston Center
04:06PM 42.8661 -71.9133 60° Northeast 278 320 8,500 -1,320 Descending Boston Center
04:07PM 42.9050 -71.8164 61° Northeast 273 314 7,200 -1,320 Descending Boston Center
04:08PM 42.9381 -71.7367 60° Northeast 268 308 5,900 -1,500 Descending Boston Center
04:09PM 42.9728 -71.6456 62° Northeast 258 297 4,300 -900 Descending Boston Center
04:10PM 42.9994 -71.5800 61° Northeast 229 264 4,200 -720 Descending Boston Center
04:11PM 43.0242 -71.5256 58° Northeast 165 190 2,900 -1,200 Descending Boston Center
04:12PM 43.0133 -71.4889 112° Southeast 115 132 1,900 -900 Descending Boston Center
04:13PM 42.9778 -71.4611 150° Southeast 120 138 1,100 8,520 Descending Boston Center
04:14PM 42.9464 -71.4444 159° South 138 159 19,000 8,940 Climbing Boston Center
04:15PM 42.9064 -71.4197 156° South 138 159 19,000  Level Boston Center
04:16PM 42.8708 -71.4003 158° South 138 159 19,000  Level Boston Center
04:18PM 42.9167 -71.4333 316° Northwest  Level FlightAware Approximate
04:25PM 42.9328 -71.4358 316° Northwest  Level Estimated
04:26PM 42.9328 -71.4358 316° Northwest  Level Estimated
04:27PM 42.9328 -71.4358 316° Northwest  Level Estimated
04:28PM 42.9328 -71.4358 316° Northwest  Level Estimated
04:29PM 42.9328 -71.4358 316° Northwest  Level Estimated
04:30PM 42.9328 -71.4358 316° Northwest  Level Estimated
04:31PM 42.9328 -71.4358 316° Northwest  Level Estimated